createdAt,value
2023-04-27T00:02:09.952Z,1.25
2023-04-27T00:04:37.544Z,1.13
2023-04-27T00:07:04.173Z,1.23
2023-04-27T00:09:30.652Z,1.88
2023-04-27T00:11:57.052Z,1.60
2023-04-27T00:14:23.574Z,2.20
2023-04-27T00:16:50.157Z,1.47
2023-04-27T00:19:16.864Z,1.38
2023-04-27T00:21:43.316Z,1.90
2023-04-27T00:24:09.780Z,1.35
2023-04-27T00:26:36.361Z,1.50
2023-04-27T00:29:02.810Z,1.27
2023-04-27T00:31:29.287Z,1.15
2023-04-27T00:33:55.863Z,1.25
2023-04-27T00:36:23.231Z,1.10
2023-04-27T00:38:51.608Z,1.63
2023-04-27T00:41:18.117Z,1.50
2023-04-27T00:43:45.923Z,1.45
2023-04-27T00:46:13.697Z,1.60
2023-04-27T00:48:41.140Z,1.75
2023-04-27T00:51:07.611Z,1.42
2023-04-27T00:53:35.941Z,0.87
2023-04-27T00:56:03.486Z,1.08
2023-04-27T00:58:30.227Z,1.38
2023-04-27T01:00:57.006Z,1.33
2023-04-27T01:03:23.660Z,1.00
2023-04-27T01:05:50.512Z,1.33
2023-04-27T01:08:23.192Z,1.75
2023-04-27T01:10:50.663Z,1.50
2023-04-27T01:13:18.184Z,1.20
2023-04-27T01:15:45.348Z,1.23
2023-04-27T01:18:11.949Z,1.50
2023-04-27T01:20:38.565Z,1.75
2023-04-27T01:23:05.067Z,1.40
2023-04-27T01:25:31.896Z,1.40
2023-04-27T01:27:58.308Z,1.45
2023-04-27T01:30:25.058Z,1.50
2023-04-27T01:32:54.197Z,1.30
2023-04-27T01:35:22.687Z,2.08
2023-04-27T01:37:50.293Z,1.40
2023-04-27T01:40:16.921Z,2.30
2023-04-27T01:42:43.374Z,1.23
2023-04-27T01:45:11.015Z,1.10
2023-04-27T01:47:37.537Z,1.70
2023-04-27T01:50:04.240Z,1.67
2023-04-27T01:52:30.695Z,1.58
2023-04-27T01:54:57.263Z,1.50
2023-04-27T01:57:23.747Z,1.48
2023-04-27T01:59:50.371Z,2.17
2023-04-27T02:02:16.775Z,1.58
2023-04-27T02:04:43.728Z,1.30
2023-04-27T02:07:10.937Z,1.53
2023-04-27T02:09:37.569Z,1.58
2023-04-27T02:12:04.218Z,1.58
2023-04-27T02:14:30.706Z,1.42
2023-04-27T02:16:57.144Z,1.85
2023-04-27T02:19:23.590Z,1.77
2023-04-27T02:21:50.766Z,1.60
2023-04-27T02:24:18.224Z,2.05
2023-04-27T02:26:44.685Z,1.90
2023-04-27T02:29:11.490Z,1.52
2023-04-27T02:31:38.605Z,1.40
2023-04-27T02:34:05.060Z,1.35
2023-04-27T02:36:32.341Z,1.77
2023-04-27T02:39:00.556Z,2.25
2023-04-27T02:41:28.480Z,1.70
2023-04-27T02:43:54.848Z,1.50
2023-04-27T02:46:21.354Z,1.67
2023-04-27T02:48:47.853Z,1.73
2023-04-27T02:51:14.321Z,1.67
2023-04-27T02:53:41.925Z,1.73
2023-04-27T02:56:10.116Z,1.40
2023-04-27T02:58:37.150Z,2.10
2023-04-27T03:01:03.700Z,1.38
2023-04-27T03:03:30.278Z,1.70
2023-04-27T03:05:57.684Z,1.50
2023-04-27T03:08:26.234Z,1.77
2023-04-27T03:10:52.688Z,1.60
2023-04-27T03:13:19.235Z,1.33
2023-04-27T03:15:47.007Z,1.13
2023-04-27T03:18:13.461Z,1.27
2023-04-27T03:20:45.146Z,1.60
2023-04-27T03:23:12.571Z,1.58
2023-04-27T03:25:39.056Z,1.70
2023-04-27T03:28:05.577Z,1.33
2023-04-27T03:30:31.971Z,1.75
2023-04-27T03:32:58.637Z,1.73
2023-04-27T03:35:28.100Z,1.77
2023-04-27T03:37:54.557Z,2.00
2023-04-27T03:40:21.696Z,1.10
2023-04-27T03:42:50.661Z,1.70
2023-04-27T03:45:19.142Z,1.70
2023-04-27T03:47:45.704Z,1.23
2023-04-27T03:50:15.251Z,1.80
2023-04-27T03:52:41.862Z,1.50
2023-04-27T03:55:14.525Z,1.38
2023-04-27T03:57:41.512Z,1.77
2023-04-27T04:00:12.113Z,1.45
2023-04-27T04:02:42.152Z,1.63
2023-04-27T04:05:09.246Z,1.40
2023-04-27T04:07:35.999Z,1.35
2023-04-27T04:10:03.474Z,1.70
2023-04-27T04:12:30.512Z,1.38
2023-04-27T04:14:59.680Z,1.90
2023-04-27T04:17:26.490Z,1.52
2023-04-27T04:19:52.968Z,1.45
2023-04-27T04:22:21.372Z,1.83
2023-04-27T04:24:47.893Z,2.00
2023-04-27T04:27:14.360Z,2.17
2023-04-27T04:29:40.834Z,1.88
2023-04-27T04:32:07.471Z,1.70
2023-04-27T04:34:34.376Z,1.57
2023-04-27T04:37:00.795Z,1.65
2023-04-27T04:39:31.824Z,1.92
2023-04-27T04:41:58.289Z,2.40
2023-04-27T04:44:24.876Z,2.05
2023-04-27T04:46:51.888Z,2.07
2023-04-27T04:49:18.438Z,2.47
2023-04-27T04:51:45.580Z,2.05
2023-04-27T04:54:12.340Z,2.72
2023-04-27T04:56:44.371Z,2.20
2023-04-27T04:59:11.225Z,2.20
2023-04-27T05:01:37.821Z,1.63
2023-04-27T05:04:04.594Z,2.30
2023-04-27T05:06:32.291Z,2.45
2023-04-27T05:08:58.726Z,2.40
2023-04-27T05:11:25.399Z,2.00
2023-04-27T05:13:51.891Z,2.47
2023-04-27T05:16:18.446Z,2.58
2023-04-27T05:18:45.039Z,2.30
2023-04-27T05:21:20.620Z,1.85
2023-04-27T05:23:47.022Z,2.57
2023-04-27T05:26:17.061Z,2.30
2023-04-27T05:28:43.854Z,2.95
2023-04-27T05:31:10.837Z,2.67
2023-04-27T05:33:37.321Z,2.50
2023-04-27T05:36:04.091Z,2.63
2023-04-27T05:38:30.527Z,3.08
2023-04-27T05:40:58.988Z,3.00
2023-04-27T05:43:26.189Z,2.80
2023-04-27T05:45:53.473Z,3.13
2023-04-27T05:48:21.147Z,2.47
2023-04-27T05:50:48.622Z,2.65
2023-04-27T05:53:15.067Z,2.83
2023-04-27T05:55:42.828Z,2.55
2023-04-27T05:58:09.491Z,3.45
2023-04-27T06:00:38.314Z,3.00
2023-04-27T06:03:05.103Z,2.92
2023-04-27T06:05:31.804Z,3.08
2023-04-27T06:07:58.432Z,2.90
2023-04-27T06:10:24.886Z,2.88
2023-04-27T06:12:51.423Z,2.97
2023-04-27T06:15:18.037Z,3.40
2023-04-27T06:17:46.124Z,3.05
2023-04-27T06:20:15.348Z,2.20
2023-04-27T06:22:41.882Z,2.33
2023-04-27T06:25:08.750Z,2.50
2023-04-27T06:27:35.461Z,2.67
2023-04-27T06:30:04.818Z,1.90
2023-04-27T06:32:32.127Z,2.17
2023-04-27T06:35:04.528Z,2.10
2023-04-27T06:37:33.338Z,3.17
2023-04-27T06:39:59.929Z,2.10
2023-04-27T06:42:27.297Z,2.38
2023-04-27T06:44:56.386Z,2.25
2023-04-27T06:47:23.745Z,1.80
2023-04-27T06:49:50.894Z,2.17
2023-04-27T06:52:17.415Z,1.83
2023-04-27T06:54:43.882Z,1.75
2023-04-27T06:57:10.798Z,1.73
2023-04-27T06:59:37.224Z,1.70
2023-04-27T07:02:03.625Z,1.55
2023-04-27T07:04:30.257Z,1.60
2023-04-27T07:06:57.252Z,2.20
2023-04-27T07:09:27.618Z,0.90
2023-04-27T07:11:55.227Z,2.05
2023-04-27T07:14:22.282Z,1.27
2023-04-27T07:16:48.693Z,1.15
2023-04-27T07:19:15.415Z,1.25
2023-04-27T07:21:41.927Z,1.02
2023-04-27T07:24:08.555Z,0.70
2023-04-27T07:26:35.048Z,1.10
2023-04-27T07:29:04.220Z,0.85
2023-04-27T07:31:35.512Z,1.33
2023-04-27T07:34:03.056Z,1.10
2023-04-27T07:36:29.462Z,0.70
2023-04-27T07:38:58.704Z,0.70
2023-04-27T07:41:25.215Z,2.05
2023-04-27T07:43:52.402Z,0.70
2023-04-27T07:46:19.048Z,1.00
2023-04-27T07:48:45.584Z,1.00
2023-04-27T07:51:16.172Z,0.63
2023-04-27T07:53:42.690Z,1.20
2023-04-27T07:56:10.122Z,0.80
2023-04-27T07:58:37.946Z,0.98
2023-04-27T08:01:04.476Z,0.70
2023-04-27T08:03:31.651Z,0.90
2023-04-27T08:05:58.818Z,1.30
2023-04-27T08:08:25.563Z,0.80
2023-04-27T08:10:52.014Z,0.90
2023-04-27T08:13:18.543Z,1.20
2023-04-27T08:15:44.958Z,0.93
2023-04-27T08:18:11.554Z,0.63
2023-04-27T08:20:38.034Z,0.82
2023-04-27T08:23:04.470Z,0.70
2023-04-27T08:25:32.215Z,0.68
2023-04-27T08:27:58.654Z,0.57
2023-04-27T08:30:25.269Z,0.88
2023-04-27T08:32:51.773Z,0.70
2023-04-27T08:35:18.352Z,0.50
2023-04-27T08:37:45.547Z,0.65
2023-04-27T08:40:12.375Z,0.65
2023-04-27T08:42:41.980Z,1.02
2023-04-27T08:45:09.132Z,0.40
2023-04-27T08:47:42.880Z,0.50
2023-04-27T08:50:12.238Z,0.65
2023-04-27T08:52:38.756Z,0.50
2023-04-27T08:55:07.422Z,0.50
2023-04-27T08:57:33.958Z,1.00
2023-04-27T09:00:01.031Z,0.50
2023-04-27T09:02:29.660Z,0.50
2023-04-27T09:04:56.933Z,0.47
2023-04-27T09:07:23.740Z,1.02
2023-04-27T09:09:50.484Z,1.20
2023-04-27T09:12:21.703Z,0.85
2023-04-27T09:14:58.518Z,0.70
2023-04-27T09:17:30.139Z,1.05
2023-04-27T09:20:09.044Z,1.05
2023-04-27T09:22:52.869Z,0.90
2023-04-27T09:25:31.395Z,0.85
2023-04-27T09:27:59.610Z,0.63
2023-04-27T09:30:29.648Z,1.45
2023-04-27T09:33:04.258Z,0.67
2023-04-27T09:35:33.144Z,1.20
2023-04-27T09:38:03.102Z,0.85
2023-04-27T09:40:31.131Z,1.02
2023-04-27T09:43:03.263Z,0.90
2023-04-27T09:45:30.466Z,1.00
2023-04-27T09:47:58.261Z,1.10
2023-04-27T09:50:24.802Z,1.50
2023-04-27T09:52:51.512Z,0.85
2023-04-27T09:55:24.520Z,1.00
2023-04-27T09:58:20.800Z,1.00
2023-04-27T10:00:59.014Z,1.10
2023-04-27T10:03:38.129Z,0.90
2023-04-27T10:06:07.596Z,1.48
2023-04-27T10:08:36.252Z,1.50
2023-04-27T10:11:16.196Z,1.20
2023-04-27T10:13:54.408Z,0.85
2023-04-27T10:16:22.149Z,1.15
2023-04-27T10:18:54.044Z,0.65
2023-04-27T10:21:22.270Z,0.85
2023-04-27T10:23:51.713Z,0.77
2023-04-27T10:26:25.805Z,0.93
2023-04-27T10:29:09.167Z,1.05
2023-04-27T10:31:36.118Z,1.50
2023-04-27T10:34:07.168Z,1.40
2023-04-27T10:36:40.815Z,1.20
2023-04-27T10:39:39.672Z,1.05
2023-04-27T10:42:11.466Z,0.90
2023-04-27T10:44:38.998Z,1.20
2023-04-27T10:47:19.878Z,1.52
2023-04-27T10:49:46.407Z,1.70
2023-04-27T10:52:13.276Z,1.13
2023-04-27T10:54:45.302Z,1.80
2023-04-27T10:57:13.098Z,1.80
2023-04-27T10:59:53.815Z,1.27
2023-04-27T11:02:28.070Z,1.63
2023-04-27T11:04:56.319Z,1.20
2023-04-27T11:07:28.070Z,1.45
2023-04-27T11:09:55.331Z,1.33
2023-04-27T11:12:21.995Z,1.02
2023-04-27T11:14:48.519Z,1.33
2023-04-27T11:17:14.981Z,1.23
2023-04-27T11:19:47.800Z,1.35
2023-04-27T11:22:18.452Z,1.08
2023-04-27T11:24:52.445Z,1.52
2023-04-27T11:27:22.100Z,1.60
2023-04-27T11:29:48.597Z,1.23
2023-04-27T11:32:25.692Z,1.13
2023-04-27T11:34:54.764Z,1.27
2023-04-27T11:37:27.651Z,1.10
2023-04-27T11:39:55.454Z,1.53
2023-04-27T11:42:26.508Z,1.80
2023-04-27T11:45:06.666Z,1.30
2023-04-27T11:47:35.863Z,2.45
2023-04-27T11:50:05.546Z,1.88
2023-04-27T11:52:33.926Z,1.97
2023-04-27T11:55:01.835Z,1.50
2023-04-27T11:57:30.466Z,2.33
2023-04-27T12:00:00.243Z,1.60
2023-04-27T12:02:31.596Z,1.95
2023-04-27T12:04:59.810Z,1.93
2023-04-27T12:07:26.942Z,1.50
2023-04-27T12:09:53.514Z,1.73
2023-04-27T12:12:22.326Z,1.88
2023-04-27T12:14:49.932Z,1.65
2023-04-27T12:17:16.557Z,1.70
2023-04-27T12:19:43.105Z,1.90
2023-04-27T12:22:09.690Z,1.65
2023-04-27T12:24:37.095Z,1.75
2023-04-27T12:27:04.368Z,1.67
2023-04-27T12:29:32.097Z,1.57
2023-04-27T12:31:59.146Z,2.10
2023-04-27T12:34:26.040Z,1.77
2023-04-27T12:36:52.417Z,1.40
2023-04-27T12:39:20.900Z,1.65
2023-04-27T12:41:48.981Z,2.03
2023-04-27T12:44:16.894Z,1.52
2023-04-27T12:46:44.028Z,2.00
2023-04-27T12:49:12.472Z,1.75
2023-04-27T12:51:41.333Z,1.80
2023-04-27T12:54:09.533Z,1.90
2023-04-27T12:56:36.491Z,2.03
2023-04-27T12:59:02.912Z,1.98
2023-04-27T13:01:31.204Z,1.98
2023-04-27T13:04:02.781Z,1.95
2023-04-27T13:06:31.217Z,2.10
2023-04-27T13:08:59.341Z,2.28
2023-04-27T13:11:26.924Z,2.10
2023-04-27T13:13:54.916Z,2.17
2023-04-27T13:16:22.666Z,2.75
2023-04-27T13:18:51.933Z,2.37
2023-04-27T13:21:18.989Z,2.03
2023-04-27T13:23:45.623Z,1.52
2023-04-27T13:26:12.780Z,1.80
2023-04-27T13:28:40.183Z,2.90
2023-04-27T13:31:06.716Z,1.90
2023-04-27T13:33:41.900Z,1.90
2023-04-27T13:36:10.195Z,1.98
2023-04-27T13:38:36.894Z,2.40
2023-04-27T13:41:04.025Z,2.65
2023-04-27T13:43:31.188Z,1.93
2023-04-27T13:46:00.750Z,2.30
2023-04-27T13:48:28.369Z,1.80
2023-04-27T13:50:55.723Z,1.88
2023-04-27T13:53:25.763Z,2.33
2023-04-27T13:55:57.106Z,1.73
2023-04-27T13:58:26.102Z,2.20
2023-04-27T14:00:53.145Z,2.00
2023-04-27T14:03:20.114Z,2.33
2023-04-27T14:05:49.332Z,1.42
2023-04-27T14:08:15.897Z,1.20
2023-04-27T14:10:43.048Z,2.00
2023-04-27T14:13:09.585Z,1.73
2023-04-27T14:15:37.322Z,1.38
2023-04-27T14:18:08.457Z,1.42
2023-04-27T14:20:35.896Z,1.30
2023-04-27T14:23:03.995Z,1.50
2023-04-27T14:25:35.584Z,1.58
2023-04-27T14:28:06.360Z,1.42
2023-04-27T14:30:34.406Z,1.85
2023-04-27T14:33:02.078Z,1.73
2023-04-27T14:35:28.735Z,1.33
2023-04-27T14:37:57.100Z,1.42
2023-04-27T14:40:24.355Z,1.42
2023-04-27T14:42:51.908Z,1.50
2023-04-27T14:45:18.907Z,1.47
2023-04-27T14:47:46.547Z,1.05
2023-04-27T14:50:13.212Z,0.95
2023-04-27T14:52:39.824Z,1.08
2023-04-27T14:55:07.040Z,1.08
2023-04-27T14:57:33.671Z,1.03
2023-04-27T15:00:00.781Z,1.10
2023-04-27T15:02:27.464Z,0.75
2023-04-27T15:04:54.047Z,0.70
2023-04-27T15:07:21.378Z,0.70
2023-04-27T15:09:47.959Z,1.10
2023-04-27T15:12:14.514Z,1.35
2023-04-27T15:14:40.993Z,0.90
2023-04-27T15:17:07.848Z,1.13
2023-04-27T15:19:34.625Z,0.93
2023-04-27T15:22:02.655Z,0.77
2023-04-27T15:24:29.231Z,0.75
2023-04-27T15:26:56.080Z,0.82
2023-04-27T15:29:22.601Z,0.88
2023-04-27T15:31:49.146Z,1.10
2023-04-27T15:34:16.008Z,1.00
2023-04-27T15:36:42.527Z,0.60
2023-04-27T15:39:10.209Z,1.00
2023-04-27T15:41:36.966Z,1.20
2023-04-27T15:44:04.984Z,1.40
2023-04-27T15:46:31.643Z,2.33
2023-04-27T15:48:58.879Z,1.42
2023-04-27T15:51:25.380Z,1.35
2023-04-27T15:53:52.008Z,0.65
2023-04-27T15:56:18.609Z,0.47
2023-04-27T15:58:45.178Z,0.73
2023-04-27T16:01:11.896Z,0.70
2023-04-27T16:03:38.652Z,1.00
2023-04-27T16:06:06.513Z,0.63
2023-04-27T16:08:33.195Z,0.70
2023-04-27T16:11:00.377Z,1.33
2023-04-27T16:13:28.337Z,1.05
2023-04-27T16:15:55.086Z,0.70
2023-04-27T16:18:21.573Z,1.20
2023-04-27T16:20:48.126Z,0.85
2023-04-27T16:23:15.120Z,1.60
2023-04-27T16:25:41.578Z,1.40
2023-04-27T16:28:08.942Z,0.93
2023-04-27T16:30:37.562Z,0.77
2023-04-27T16:33:04.134Z,0.98
2023-04-27T16:35:30.628Z,1.10
2023-04-27T16:37:57.208Z,1.20
2023-04-27T16:40:23.686Z,0.98
2023-04-27T16:42:50.394Z,1.30
2023-04-27T16:45:16.880Z,0.95
2023-04-27T16:47:45.777Z,1.00
2023-04-27T16:50:12.310Z,1.10
2023-04-27T16:52:39.149Z,0.90
2023-04-27T16:55:06.357Z,1.00
2023-04-27T16:57:32.780Z,1.23
2023-04-27T17:00:00.877Z,0.57
2023-04-27T17:02:27.518Z,0.75
2023-04-27T17:04:54.664Z,0.80
2023-04-27T17:07:21.343Z,1.20
2023-04-27T17:09:48.060Z,1.00
2023-04-27T17:12:16.596Z,1.00
2023-04-27T17:14:43.254Z,1.02
2023-04-27T17:17:10.379Z,1.00
2023-04-27T17:19:36.937Z,1.33
2023-04-27T17:22:04.246Z,0.98
2023-04-27T17:24:30.840Z,1.30
2023-04-27T17:26:57.314Z,1.20
2023-04-27T17:29:23.854Z,2.20
2023-04-27T17:31:50.772Z,1.58
2023-04-27T17:34:17.584Z,1.08
2023-04-27T17:36:44.271Z,1.40
2023-04-27T17:39:12.806Z,1.20
2023-04-27T17:41:39.939Z,1.40
2023-04-27T17:44:06.571Z,1.30
2023-04-27T17:46:33.379Z,1.00
2023-04-27T17:49:00.170Z,2.13
2023-04-27T17:51:27.887Z,1.38
2023-04-27T17:53:54.460Z,1.33
2023-04-27T17:56:21.030Z,1.60
2023-04-27T17:58:48.566Z,1.10
2023-04-27T18:10:56.376Z,1.45
2023-04-27T18:38:39.786Z,2.08
2023-04-27T18:41:07.181Z,2.28
2023-04-27T18:43:37.261Z,2.75
2023-04-27T18:46:04.542Z,5.30
2023-04-27T18:48:31.409Z,5.07
2023-04-27T18:50:58.224Z,6.25
2023-04-27T18:53:27.228Z,44.15
2023-04-27T18:55:53.768Z,61.33
2023-04-27T18:58:20.398Z,46.50
2023-04-27T19:00:46.922Z,8.82
2023-04-27T19:03:13.859Z,4.88
2023-04-27T19:05:43.173Z,3.67
2023-04-27T19:08:10.291Z,2.47
2023-04-27T19:10:37.424Z,2.72
2023-04-27T19:13:04.810Z,1.92
2023-04-27T19:15:31.299Z,2.72
2023-04-27T19:18:02.699Z,2.15
2023-04-27T19:20:37.073Z,2.03
2023-04-27T19:23:05.067Z,2.63
2023-04-27T19:25:31.759Z,3.05
2023-04-27T19:27:58.651Z,2.67
2023-04-27T19:30:25.351Z,3.55
2023-04-27T19:32:52.836Z,3.30
2023-04-27T19:35:20.423Z,3.20
2023-04-27T19:37:47.048Z,3.10
2023-04-27T19:40:13.684Z,2.80
2023-04-27T19:42:40.380Z,2.70
2023-04-27T19:45:07.486Z,2.70
2023-04-27T19:47:34.116Z,2.08
2023-04-27T19:50:00.864Z,2.90
2023-04-27T19:52:27.547Z,2.03
2023-04-27T19:54:54.796Z,2.42
2023-04-27T19:57:21.725Z,2.00
2023-04-27T19:59:48.360Z,2.40
2023-04-27T20:02:15.314Z,2.78
2023-04-27T20:04:42.272Z,2.58
2023-04-27T20:07:09.042Z,2.33
2023-04-27T20:09:35.866Z,2.47
2023-04-27T20:12:03.656Z,2.20
2023-04-27T20:14:33.632Z,2.10
2023-04-27T20:17:00.292Z,2.45
2023-04-27T20:19:26.890Z,1.73
2023-04-27T20:21:53.665Z,2.75
2023-04-27T20:24:20.452Z,2.05
2023-04-27T20:26:47.143Z,1.83
2023-04-27T20:29:13.678Z,2.00
2023-04-27T20:31:41.326Z,2.00
2023-04-27T20:34:07.882Z,1.95
2023-04-27T20:36:34.517Z,2.13
2023-04-27T20:39:01.282Z,1.90
2023-04-27T20:41:28.498Z,1.75
2023-04-27T20:43:55.449Z,2.35
2023-04-27T20:46:22.232Z,1.50
2023-04-27T20:48:48.937Z,1.92
2023-04-27T20:51:15.662Z,2.20
2023-04-27T20:53:42.318Z,1.67
2023-04-27T20:56:09.181Z,2.28
2023-04-27T20:58:36.151Z,1.85
2023-04-27T21:01:02.673Z,2.25
2023-04-27T21:03:29.515Z,2.03
2023-04-27T21:05:56.351Z,2.17
2023-04-27T21:08:22.984Z,1.80
2023-04-27T21:10:49.718Z,1.80
2023-04-27T21:13:16.229Z,1.80
2023-04-27T21:15:42.667Z,2.08
2023-04-27T21:18:15.986Z,2.05
2023-04-27T21:20:50.306Z,1.70
2023-04-27T21:23:17.057Z,1.67
2023-04-27T21:25:45.030Z,2.13
2023-04-27T21:28:11.722Z,2.13
2023-04-27T21:30:38.483Z,2.35
2023-04-27T21:33:05.235Z,1.90
2023-04-27T21:35:32.268Z,1.80
2023-04-27T21:37:59.338Z,1.87
2023-04-27T21:40:26.117Z,2.20
2023-04-27T21:42:53.979Z,2.05
2023-04-27T21:45:21.003Z,2.13
2023-04-27T21:47:48.272Z,2.25
2023-04-27T21:50:16.347Z,2.40
2023-04-27T21:52:42.858Z,2.22
2023-04-27T21:55:09.965Z,2.35
2023-04-27T21:57:36.788Z,2.38
2023-04-27T22:00:13.095Z,2.60
2023-04-27T22:02:42.488Z,2.30
2023-04-27T22:05:12.549Z,2.20
2023-04-27T22:07:38.983Z,2.25
2023-04-27T22:10:06.158Z,1.83
2023-04-27T22:12:33.363Z,2.13
2023-04-27T22:15:00.369Z,2.60
2023-04-27T22:17:27.682Z,2.72
2023-04-27T22:19:54.696Z,2.88
2023-04-27T22:22:21.247Z,2.30
2023-04-27T22:24:47.738Z,2.55
2023-04-27T22:27:14.218Z,2.97
2023-04-27T22:29:41.052Z,2.30
2023-04-27T22:32:11.178Z,2.70
2023-04-27T22:34:38.182Z,2.35
2023-04-27T22:37:04.709Z,2.45
2023-04-27T22:39:33.080Z,3.00
2023-04-27T22:41:59.854Z,3.00
2023-04-27T22:44:29.223Z,2.58
2023-04-27T22:46:56.480Z,2.00
2023-04-27T22:49:27.877Z,2.70
2023-04-27T22:51:57.838Z,2.60
2023-04-27T22:54:25.086Z,2.65
2023-04-27T22:56:51.863Z,2.85
2023-04-27T22:59:23.101Z,2.53
2023-04-27T23:01:49.876Z,2.20
2023-04-27T23:04:19.137Z,2.63
2023-04-27T23:06:46.430Z,2.53
2023-04-27T23:09:14.437Z,2.88
2023-04-27T23:11:41.516Z,3.03
2023-04-27T23:14:09.115Z,3.08
2023-04-27T23:16:36.105Z,2.40
2023-04-27T23:19:03.037Z,2.50
2023-04-27T23:21:29.620Z,2.47
2023-04-27T23:23:56.166Z,2.42
2023-04-27T23:26:22.614Z,2.42
2023-04-27T23:28:50.290Z,2.07
2023-04-27T23:31:17.062Z,2.10
2023-04-27T23:33:44.870Z,2.22
2023-04-27T23:36:12.716Z,2.08
2023-04-27T23:38:40.532Z,2.15
2023-04-27T23:41:08.444Z,2.42
2023-04-27T23:43:35.104Z,2.50
2023-04-27T23:46:03.465Z,2.42
2023-04-27T23:48:30.479Z,2.20
2023-04-27T23:51:01.392Z,2.03
2023-04-27T23:53:28.480Z,1.95
2023-04-27T23:55:56.938Z,2.15
2023-04-27T23:58:25.044Z,2.10
